Time;durP1;ratioP1;P1;durP2;ratioP2;P2;SDS_P1;SDS_P2;PMS_P1;PMS_P2;Temp;Humidity;BMP_temperature;BMP_pressure;BME280_temperature;BME280_humidity;BME280_pressure;Samples;Min_cycle;Max_cycle;Signal;HPM_P1;HPM_P2
2022/08/15 00:00:56;;;;;;;10.20;9.60;;;;;;;15.83;100.00;92252.09;5039291;28;20198;-69
2022/08/15 00:03:21;;;;;;;11.53;10.80;;;;;;;15.82;100.00;92253.97;5041316;28;20190;-70
2022/08/15 00:05:47;;;;;;;11.20;10.50;;;;;;;15.76;100.00;92257.09;5040984;28;20225;-70
2022/08/15 00:08:13;;;;;;;10.10;9.30;;;;;;;15.44;100.00;92226.16;5041550;28;20230;-70
2022/08/15 00:10:39;;;;;;;9.80;9.20;;;;;;;15.60;100.00;92250.81;5040121;28;21234;-70
2022/08/15 00:13:14;;;;;;;11.40;10.53;;;;;;;15.67;100.00;92269.53;5040939;28;20256;-69
2022/08/15 00:15:40;;;;;;;11.80;10.93;;;;;;;15.66;100.00;92267.97;5034868;28;20246;-71
2022/08/15 00:18:06;;;;;;;12.10;11.27;;;;;;;15.72;100.00;92267.47;5042624;28;20190;-70
2022/08/15 00:20:37;;;;;;;13.33;12.43;;;;;;;15.73;100.00;92265.63;5037696;28;20309;-70
2022/08/15 00:23:04;;;;;;;12.63;11.63;;;;;;;15.68;100.00;92268.44;5038515;28;20187;-70
2022/08/15 00:25:29;;;;;;;13.33;12.37;;;;;;;15.73;100.00;92263.00;5037880;28;20230;-70
2022/08/15 00:27:55;;;;;;;14.00;12.80;;;;;;;15.73;100.00;92249.84;5038181;28;20202;-70
2022/08/15 00:30:22;;;;;;;12.57;11.57;;;;;;;15.86;100.00;92256.72;5040256;28;20314;-70
2022/08/15 00:32:58;;;;;;;12.73;11.70;;;;;;;15.82;100.00;92245.28;5039993;28;20217;-70
2022/08/15 00:35:36;;;;;;;11.70;10.90;;;;;;;15.91;100.00;92227.56;5038658;28;20260;-70
2022/08/15 00:38:05;;;;;;;12.57;11.67;;;;;;;16.03;100.00;92246.09;5038246;28;20178;-70
2022/08/15 00:41:38;;;;;;;12.37;11.57;;;;;;;15.98;100.00;92254.19;5037718;28;20230;-69
2022/08/15 00:43:16;;;;;;;13.63;12.70;;;;;;;15.99;100.00;92245.19;5036319;28;20197;-68
2022/08/15 00:45:42;;;;;;;12.10;11.30;;;;;;;16.02;100.00;92247.97;5038245;28;20254;-69
2022/08/15 00:50:51;;;;;;;12.53;11.60;;;;;;;16.08;100.00;92240.63;5036068;28;20222;-69
2022/08/15 00:53:17;;;;;;;12.07;11.17;;;;;;;16.09;100.00;92250.09;5038744;28;20210;-69
2022/08/15 00:55:44;;;;;;;12.77;11.87;;;;;;;15.90;100.00;92247.09;5038368;28;20219;-69
2022/08/15 00:58:10;;;;;;;13.03;12.03;;;;;;;15.99;100.00;92250.44;5037360;28;20186;-69
2022/08/15 01:00:44;;;;;;;12.27;11.47;;;;;;;16.08;100.00;92257.22;5036645;28;20325;-69
2022/08/15 01:03:14;;;;;;;13.13;11.97;;;;;;;16.19;100.00;92243.66;5033717;28;20179;-69
2022/08/15 01:05:40;;;;;;;12.87;11.87;;;;;;;16.20;100.00;92247.84;5038027;28;20245;-70
2022/08/15 01:08:06;;;;;;;13.73;12.50;;;;;;;16.16;100.00;92250.34;5038631;28;20229;-70
2022/08/15 01:10:34;;;;;;;13.67;12.53;;;;;;;16.02;100.00;92234.00;5037152;28;20218;-69
2022/08/15 01:13:00;;;;;;;14.10;13.00;;;;;;;16.06;100.00;92251.47;5037123;28;20210;-69
2022/08/15 01:15:25;;;;;;;13.67;12.57;;;;;;;16.06;100.00;92245.47;5038013;28;20248;-69
2022/08/15 01:17:51;;;;;;;13.73;12.63;;;;;;;16.21;100.00;92242.25;5037672;28;20197;-68
2022/08/15 01:20:26;;;;;;;14.07;12.87;;;;;;;16.12;100.00;92236.28;5038300;28;20246;-69
2022/08/15 01:23:04;;;;;;;15.53;14.10;;;;;;;16.11;100.00;92239.22;5039499;28;20182;-69
2022/08/15 01:25:35;;;;;;;14.13;12.97;;;;;;;16.09;100.00;92237.69;5037464;28;20226;-68
2022/08/15 01:28:18;;;;;;;14.40;13.10;;;;;;;16.13;100.00;92245.72;5036058;28;20669;-68
2022/08/15 01:31:00;;;;;;;14.00;12.83;;;;;;;16.20;100.00;92235.44;5038223;28;20230;-68
2022/08/15 01:33:28;;;;;;;14.30;13.20;;;;;;;16.07;100.00;92239.09;5037684;28;20221;-69
2022/08/15 01:35:54;;;;;;;13.13;12.07;;;;;;;15.78;100.00;92249.66;5036616;28;20179;-69
2022/08/15 01:38:43;;;;;;;13.93;12.63;;;;;;;15.80;100.00;92250.88;5039585;28;20198;-69
2022/08/15 01:41:17;;;;;;;12.70;11.70;;;;;;;15.84;100.00;92251.78;5039863;28;20237;-69
2022/08/15 01:43:52;;;;;;;12.97;11.93;;;;;;;15.72;100.00;92256.19;5035190;28;20225;-69
2022/08/15 01:46:22;;;;;;;12.73;11.70;;;;;;;15.62;100.00;92252.06;5039933;28;20249;-69
2022/08/15 01:48:51;;;;;;;12.70;11.47;;;;;;;15.62;100.00;92253.91;5038979;28;20325;-68
2022/08/15 01:51:17;;;;;;;12.57;11.67;;;;;;;15.61;100.00;92241.84;5037716;28;20804;-69
2022/08/15 01:53:48;;;;;;;13.03;11.70;;;;;;;15.70;100.00;92247.84;5035201;28;20245;-68
2022/08/15 01:56:20;;;;;;;12.77;11.90;;;;;;;15.71;100.00;92252.00;5037667;28;20176;-69
2022/08/15 01:58:46;;;;;;;11.47;10.57;;;;;;;15.79;100.00;92240.66;5033972;28;20241;-69
2022/08/15 02:01:17;;;;;;;12.50;11.70;;;;;;;15.65;100.00;92233.00;5037363;28;20182;-69
2022/08/15 02:03:45;;;;;;;11.93;11.13;;;;;;;15.62;100.00;92246.81;5037535;28;20252;-69
2022/08/15 02:06:17;;;;;;;12.80;11.80;;;;;;;15.48;100.00;92241.00;5038112;28;20187;-70
2022/08/15 02:08:44;;;;;;;11.67;10.77;;;;;;;15.33;100.00;92224.94;5037050;28;21040;-70
2022/08/15 02:11:14;;;;;;;12.30;11.40;;;;;;;15.41;100.00;92224.91;5037888;28;20205;-69
2022/08/15 02:13:41;;;;;;;12.10;11.20;;;;;;;15.52;100.00;92236.63;5035654;28;20240;-67
2022/08/15 02:16:07;;;;;;;12.43;11.33;;;;;;;15.51;100.00;92226.41;5039183;28;20184;-69
2022/08/15 02:18:32;;;;;;;12.60;11.70;;;;;;;15.48;100.00;92225.22;5038930;28;20263;-69
2022/08/15 02:20:57;;;;;;;11.60;10.60;;;;;;;15.47;100.00;92233.41;5036745;28;20202;-69
2022/08/15 02:23:23;;;;;;;13.47;12.47;;;;;;;15.34;100.00;92229.09;5037820;28;20195;-70
2022/08/15 02:25:51;;;;;;;12.30;11.30;;;;;;;15.24;100.00;92227.59;5036262;28;20186;-69
2022/08/15 02:28:17;;;;;;;12.43;11.33;;;;;;;15.11;100.00;92230.44;5037376;28;20178;-69
2022/08/15 02:30:43;;;;;;;12.93;11.90;;;;;;;15.11;100.00;92230.44;5038794;28;20226;-69
2022/08/15 02:33:10;;;;;;;12.60;11.53;;;;;;;15.10;100.00;92244.66;5039581;28;20236;-69
2022/08/15 02:35:36;;;;;;;13.37;12.17;;;;;;;15.03;100.00;92252.25;5039057;28;20233;-69
2022/08/15 02:38:04;;;;;;;13.30;12.07;;;;;;;14.92;100.00;92253.69;5039565;28;20187;-69
2022/08/15 02:40:30;;;;;;;12.57;11.50;;;;;;;14.95;100.00;92263.56;5039139;28;20229;-69
2022/08/15 02:42:56;;;;;;;13.87;12.73;;;;;;;14.90;100.00;92263.72;5037357;28;20183;-69
2022/08/15 02:45:21;;;;;;;12.90;11.87;;;;;;;14.53;100.00;92257.28;5037739;28;20214;-69
2022/08/15 02:47:46;;;;;;;12.97;11.73;;;;;;;14.46;100.00;92260.38;5038791;28;20202;-69
2022/08/15 02:50:15;;;;;;;13.60;12.60;;;;;;;14.50;100.00;92263.19;5039551;28;20270;-69
2022/08/15 02:52:43;;;;;;;12.80;11.87;;;;;;;14.57;100.00;92267.97;5042379;28;20225;-69
2022/08/15 02:55:11;;;;;;;12.37;11.47;;;;;;;14.72;100.00;92270.09;5040951;28;20271;-69
2022/08/15 02:57:37;;;;;;;14.10;12.90;;;;;;;14.70;100.00;92267.00;5038329;28;20191;-69
2022/08/15 03:00:07;;;;;;;13.73;12.53;;;;;;;14.67;100.00;92276.28;5043040;28;20257;-69
2022/08/15 03:02:49;;;;;;;15.57;14.20;;;;;;;14.64;100.00;92270.88;5040647;28;20246;-69
2022/08/15 03:05:15;;;;;;;15.03;13.63;;;;;;;14.70;100.00;92274.88;5039296;28;20250;-69
2022/08/15 03:07:41;;;;;;;14.77;13.37;;;;;;;14.73;100.00;92282.94;5040119;28;20233;-69
2022/08/15 03:10:07;;;;;;;16.27;14.70;;;;;;;14.85;100.00;92267.28;5039875;28;20250;-69
2022/08/15 03:12:33;;;;;;;15.90;14.30;;;;;;;14.67;100.00;92284.19;5037843;28;20203;-69
2022/08/15 03:15:00;;;;;;;14.80;13.50;;;;;;;14.71;100.00;92277.22;5042097;28;20223;-69
2022/08/15 03:17:26;;;;;;;16.57;14.73;;;;;;;14.68;100.00;92280.44;5042594;28;20198;-69
2022/08/15 03:19:53;;;;;;;16.47;14.97;;;;;;;14.72;100.00;92275.34;5044561;28;20321;-68
2022/08/15 03:22:19;;;;;;;16.33;14.13;;;;;;;14.70;100.00;92288.03;5044333;28;20224;-69
2022/08/15 03:24:44;;;;;;;19.03;17.23;;;;;;;14.79;100.00;92296.66;5042936;28;20234;-69
2022/08/15 03:27:10;;;;;;;17.33;15.63;;;;;;;14.75;100.00;92301.00;5038637;28;20182;-69
2022/08/15 03:29:35;;;;;;;18.80;15.13;;;;;;;14.78;100.00;92301.16;5039367;28;20226;-69
2022/08/15 03:32:09;;;;;;;16.80;15.07;;;;;;;14.75;100.00;92303.63;5039102;28;20273;-68
2022/08/15 03:34:35;;;;;;;17.23;15.63;;;;;;;14.82;100.00;92303.97;5040147;28;20238;-69
2022/08/15 03:37:01;;;;;;;19.43;15.40;;;;;;;14.96;100.00;92309.81;5041139;28;20180;-69
2022/08/15 03:39:26;;;;;;;15.37;13.87;;;;;;;14.77;100.00;92293.59;5039130;28;20226;-69
2022/08/15 03:41:52;;;;;;;17.40;15.70;;;;;;;14.84;100.00;92299.13;5037746;28;20197;-69
2022/08/15 03:44:18;;;;;;;14.70;13.50;;;;;;;14.74;100.00;92300.22;5040677;28;20242;-69
2022/08/15 03:46:43;;;;;;;15.73;14.33;;;;;;;14.83;100.00;92287.09;5038688;28;21157;-69
2022/08/15 03:49:09;;;;;;;15.20;13.77;;;;;;;15.02;100.00;92305.94;5039572;28;20270;-67
2022/08/15 03:51:34;;;;;;;15.37;13.87;;;;;;;14.92;100.00;92296.50;5040579;28;20193;-69
2022/08/15 03:54:00;;;;;;;14.37;13.03;;;;;;;14.94;100.00;92317.22;5039330;28;20238;-70
2022/08/15 03:56:30;;;;;;;14.43;13.33;;;;;;;14.91;100.00;92315.22;5043312;28;20222;-69
2022/08/15 03:58:57;;;;;;;13.73;12.30;;;;;;;14.91;100.00;92305.47;5042559;28;20234;-69
2022/08/15 04:01:28;;;;;;;14.37;13.17;;;;;;;14.99;100.00;92311.81;5039804;28;20186;-69
2022/08/15 04:03:54;;;;;;;13.97;12.67;;;;;;;15.16;100.00;92317.03;5041166;28;20225;-70
2022/08/15 04:06:23;;;;;;;14.53;13.03;;;;;;;15.17;100.00;92319.34;5037744;28;20299;-69
2022/08/15 04:08:51;;;;;;;14.07;12.93;;;;;;;15.10;100.00;92316.41;5038098;28;20235;-69
2022/08/15 04:11:17;;;;;;;14.03;12.93;;;;;;;14.95;100.00;92318.75;5039556;28;20194;-70
2022/08/15 04:13:45;;;;;;;13.10;12.10;;;;;;;15.11;100.00;92319.81;5039762;28;20250;-70
2022/08/15 04:16:12;;;;;;;13.60;12.50;;;;;;;15.24;100.00;92319.63;5041704;28;20225;-70
2022/08/15 04:18:39;;;;;;;14.57;13.07;;;;;;;15.11;100.00;92306.69;5034638;28;20185;-69
2022/08/15 04:21:11;;;;;;;15.60;13.97;;;;;;;15.42;100.00;92317.78;5040825;28;20208;-70
2022/08/15 04:23:36;;;;;;;14.50;13.17;;;;;;;15.34;100.00;92315.91;5040149;28;20785;-69
2022/08/15 04:26:02;;;;;;;14.73;13.43;;;;;;;15.46;100.00;92321.31;5041812;28;20222;-69
2022/08/15 04:28:31;;;;;;;15.47;13.87;;;;;;;15.63;100.00;92322.03;5037367;28;20190;-70
2022/08/15 04:30:59;;;;;;;17.27;15.50;;;;;;;15.69;100.00;92319.97;5036298;28;20194;-69
2022/08/15 04:33:29;;;;;;;17.00;15.43;;;;;;;15.85;100.00;92307.84;5041808;28;20206;-70
2022/08/15 04:36:10;;;;;;;15.40;13.97;;;;;;;15.76;100.00;92294.72;5040675;28;20194;-71
2022/08/15 04:38:47;;;;;;;16.73;15.13;;;;;;;16.06;99.25;92313.94;5034808;28;20298;-71
2022/08/15 04:41:13;;;;;;;14.47;13.07;;;;;;;16.17;98.97;92307.22;5037507;28;20280;-71
2022/08/15 04:43:42;;;;;;;15.27;13.97;;;;;;;16.31;98.08;92310.34;5038515;28;21400;-69
2022/08/15 04:46:09;;;;;;;17.27;14.00;;;;;;;16.49;97.25;92305.75;5039397;28;20200;-68
2022/08/15 04:48:34;;;;;;;15.70;14.33;;;;;;;16.43;96.35;92312.28;5031830;28;20298;-68
2022/08/15 04:51:02;;;;;;;16.33;14.77;;;;;;;16.77;95.67;92314.69;5036659;28;20195;-68
2022/08/15 04:53:33;;;;;;;15.70;14.10;;;;;;;17.03;92.98;92321.28;5036393;28;20238;-68
2022/08/15 04:56:01;;;;;;;15.43;13.80;;;;;;;17.17;92.49;92323.63;5035397;28;20237;-69
2022/08/15 04:58:27;;;;;;;15.93;14.47;;;;;;;17.36;91.98;92324.69;5034713;28;20187;-69
2022/08/15 05:01:04;;;;;;;16.60;14.97;;;;;;;17.55;91.04;92327.63;5039679;28;20218;-72
2022/08/15 05:03:31;;;;;;;15.30;13.83;;;;;;;17.57;89.75;92330.69;5034891;28;20178;-69
2022/08/15 05:06:02;;;;;;;16.30;14.77;;;;;;;17.69;89.88;92337.09;5035883;28;20205;-69
2022/08/15 05:08:30;;;;;;;19.07;16.93;;;;;;;17.51;91.49;92332.00;5037181;28;20266;-67
2022/08/15 05:11:01;;;;;;;29.27;20.83;;;;;;;18.02;90.13;92319.31;5036907;28;20192;-68
2022/08/15 05:13:31;;;;;;;27.67;21.87;;;;;;;18.08;90.91;92317.97;5037442;28;20253;-68
2022/08/15 05:15:58;;;;;;;28.93;21.93;;;;;;;18.10;91.29;92315.78;5041762;28;20239;-68
2022/08/15 05:18:25;;;;;;;32.67;23.00;;;;;;;18.35;89.70;92302.19;5037158;28;20214;-69
2022/08/15 05:20:51;;;;;;;37.83;23.27;;;;;;;18.16;89.90;92317.09;5038540;28;20204;-69
2022/08/15 05:23:18;;;;;;;28.90;21.90;;;;;;;18.63;88.44;92318.91;5040411;28;20207;-69
2022/08/15 05:25:48;;;;;;;30.00;21.60;;;;;;;18.40;88.37;92323.16;5037399;28;20239;-68
2022/08/15 05:28:14;;;;;;;28.07;22.17;;;;;;;18.68;87.49;92315.28;5036258;28;20217;-69
2022/08/15 05:30:40;;;;;;;23.53;19.80;;;;;;;18.58;87.45;92310.47;5037035;28;20286;-68
2022/08/15 05:33:14;;;;;;;29.53;22.87;;;;;;;18.69;86.25;92306.25;5037868;28;20283;-69
2022/08/15 05:35:43;;;;;;;25.87;21.73;;;;;;;18.46;88.41;92313.13;5036171;28;20228;-68
2022/08/15 05:38:17;;;;;;;28.13;22.00;;;;;;;18.72;86.45;92311.63;5037761;28;21165;-67
2022/08/15 05:40:58;;;;;;;27.60;20.97;;;;;;;18.73;86.33;92315.81;5040089;28;20262;-68
2022/08/15 05:43:42;;;;;;;27.77;21.87;;;;;;;18.72;85.78;92310.88;5036718;28;20193;-70
2022/08/15 05:46:22;;;;;;;29.03;21.93;;;;;;;19.10;85.07;92322.53;5034097;28;20255;-68
2022/08/15 05:49:00;;;;;;;28.70;22.27;;;;;;;19.15;84.42;92324.16;5033874;28;20261;-70
2022/08/15 05:51:51;;;;;;;27.97;22.47;;;;;;;20.48;77.82;92327.50;5035476;28;20195;-70
2022/08/15 05:55:05;;;;;;;26.37;21.13;;;;;;;21.76;72.21;92337.72;5027348;28;20236;-68
2022/08/15 05:57:43;;;;;;;25.30;21.17;;;;;;;23.27;64.74;92342.69;5021537;28;20213;-67
2022/08/15 06:00:12;;;;;;;26.15;20.98;;;;;;;25.62;58.75;92346.47;5036691;28;20247;-68
2022/08/15 06:02:44;;;;;;;23.55;20.33;;;;;;;27.50;51.70;92349.59;5039493;28;20197;-67
2022/08/15 06:05:34;;;;;;;22.60;19.90;;;;;;;26.89;50.70;92341.28;5037019;28;20331;-68
2022/08/15 06:08:06;;;;;;;25.25;19.65;;;;;;;25.41;55.48;92335.72;5036203;28;20240;-68
2022/08/15 06:10:43;;;;;;;23.65;20.38;;;;;;;26.72;51.48;92343.59;5034184;28;20226;-70
2022/08/15 06:13:14;;;;;;;23.42;19.45;;;;;;;27.06;49.83;92345.84;5034719;28;20193;-70
2022/08/15 06:15:50;;;;;;;21.48;19.13;;;;;;;27.14;49.82;92347.38;5036001;28;20218;-68
2022/08/15 06:18:18;;;;;;;22.55;19.67;;;;;;;27.76;47.28;92348.31;5032337;28;20191;-69
2022/08/15 06:21:01;;;;;;;22.92;18.75;;;;;;;27.00;50.68;92344.72;5034679;28;20218;-70
2022/08/15 06:24:08;;;;;;;24.08;19.95;;;;;;;25.29;53.84;92336.78;5037226;28;20182;-71
2022/08/15 06:26:59;;;;;;;21.35;19.23;;;;;;;24.16;58.50;92344.41;5041588;28;20262;-71
2022/08/15 06:29:53;;;;;;;23.70;21.17;;;;;;;23.08;63.20;92329.47;5036415;28;20238;-71
2022/08/15 06:32:36;;;;;;;25.27;21.88;;;;;;;21.71;69.13;92321.28;5039146;28;20267;-71
2022/08/15 06:35:22;;;;;;;24.20;21.27;;;;;;;20.33;72.86;92338.94;5032100;28;22241;-71
2022/08/15 06:38:24;;;;;;;25.08;21.65;;;;;;;21.48;72.48;92341.75;5038407;28;20181;-72
2022/08/15 06:41:06;;;;;;;23.25;20.75;;;;;;;20.85;74.09;92337.78;5036106;28;20238;-69
2022/08/15 06:43:31;;;;;;;25.55;21.92;;;;;;;21.02;73.38;92324.91;5036517;28;20248;-69
2022/08/15 06:46:00;;;;;;;27.23;22.58;;;;;;;20.77;74.47;92341.41;5035895;28;20195;-70
2022/08/15 06:48:30;;;;;;;26.65;21.88;;;;;;;20.78;74.15;92349.00;5036956;28;20250;-70
2022/08/15 06:51:00;;;;;;;26.75;22.40;;;;;;;20.87;74.96;92343.53;5036101;28;20614;-70
2022/08/15 06:53:42;;;;;;;29.42;21.38;;;;;;;21.16;73.36;92343.00;5037714;28;20205;-70
2022/08/15 06:56:38;;;;;;;25.05;21.02;;;;;;;20.59;76.16;92344.44;5034442;28;20207;-68
2022/08/15 06:59:38;;;;;;;24.60;20.67;;;;;;;20.55;76.07;92346.25;5038617;28;20238;-70
2022/08/15 07:02:43;;;;;;;25.23;21.67;;;;;;;20.54;75.33;92347.38;5038558;28;20289;-70
2022/08/15 07:05:30;;;;;;;25.23;21.52;;;;;;;20.66;75.26;92355.22;5004827;28;20244;-70
2022/08/15 07:08:14;;;;;;;24.27;20.98;;;;;;;20.59;74.94;92352.41;5037476;28;20279;-69
2022/08/15 07:10:55;;;;;;;26.30;22.48;;;;;;;20.55;75.93;92354.22;5035063;28;20233;-69
2022/08/15 07:13:33;;;;;;;27.73;22.73;;;;;;;20.51;76.84;92345.38;5037106;28;20216;-72
2022/08/15 07:16:05;;;;;;;26.60;21.57;;;;;;;20.67;74.64;92354.09;5036472;28;20198;-69
2022/08/15 07:18:39;;;;;;;27.07;22.37;;;;;;;20.44;76.36;92341.81;5033912;28;20186;-70
2022/08/15 07:21:09;;;;;;;31.97;23.13;;;;;;;20.74;75.62;92345.53;5033575;28;21211;-69
2022/08/15 07:23:35;;;;;;;30.80;24.03;;;;;;;20.70;75.62;92344.69;5038547;28;20264;-70
2022/08/15 07:26:07;;;;;;;27.95;21.98;;;;;;;20.50;75.31;92343.88;5034779;28;20227;-70
2022/08/15 07:28:35;;;;;;;28.23;21.80;;;;;;;20.67;76.48;92340.84;5037047;28;20252;-69
2022/08/15 07:31:11;;;;;;;25.77;21.77;;;;;;;20.79;74.76;92341.81;5033980;28;20214;-70
2022/08/15 07:33:41;;;;;;;28.63;22.65;;;;;;;20.81;75.72;92339.59;5033324;28;20241;-70
2022/08/15 07:36:20;;;;;;;25.63;22.20;;;;;;;20.69;75.31;92349.22;5039052;28;20210;-71
2022/08/15 07:38:46;;;;;;;30.25;22.67;;;;;;;21.13;74.81;92351.66;5040035;28;20324;-71
2022/08/15 07:41:17;;;;;;;26.85;21.80;;;;;;;21.08;74.46;92355.38;5038626;28;20192;-70
2022/08/15 07:43:43;;;;;;;28.50;22.08;;;;;;;21.00;74.01;92353.69;5039742;28;20236;-70
2022/08/15 07:46:15;;;;;;;28.58;22.30;;;;;;;20.70;74.92;92356.06;5040062;28;20339;-70
2022/08/15 07:48:42;;;;;;;27.15;22.38;;;;;;;20.80;74.60;92367.25;5035819;28;20304;-71
2022/08/15 07:51:14;;;;;;;27.02;23.05;;;;;;;20.78;73.82;92367.59;5039973;28;20185;-71
2022/08/15 07:54:00;;;;;;;25.10;22.45;;;;;;;20.86;74.44;92374.59;5037554;28;20266;-70
2022/08/15 07:56:29;;;;;;;29.23;23.50;;;;;;;20.93;73.96;92377.41;5038612;28;20220;-71
2022/08/15 07:59:30;;;;;;;24.17;21.60;;;;;;;21.23;72.96;92369.72;5038759;28;20245;-71
2022/08/15 08:02:25;;;;;;;25.60;21.65;;;;;;;21.37;72.10;92362.03;4995012;28;20213;-70
2022/08/15 08:04:51;;;;;;;24.67;21.92;;;;;;;21.25;73.66;92359.50;5039168;28;20255;-70
2022/08/15 08:07:48;;;;;;;26.45;21.98;;;;;;;21.73;71.96;92375.59;5035002;28;20251;-70
2022/08/15 08:10:38;;;;;;;28.38;22.08;;;;;;;21.69;71.15;92368.69;5021076;28;20292;-70
2022/08/15 08:13:09;;;;;;;23.45;20.70;;;;;;;21.48;72.05;92373.63;5040373;28;21003;-70
2022/08/15 08:15:37;;;;;;;22.85;20.38;;;;;;;21.64;71.10;92376.94;5037376;28;20290;-69
2022/08/15 08:18:08;;;;;;;25.65;22.33;;;;;;;21.54;72.54;92374.88;5041550;28;20198;-71
2022/08/15 08:20:49;;;;;;;23.23;20.73;;;;;;;21.37;71.65;92375.31;5035356;28;20230;-69
2022/08/15 08:23:49;;;;;;;23.05;20.70;;;;;;;21.67;71.41;92378.91;5039311;28;20182;-69
2022/08/15 08:26:30;;;;;;;23.90;21.33;;;;;;;21.63;71.26;92370.09;4991969;28;20223;-69
2022/08/15 08:29:03;;;;;;;25.08;22.38;;;;;;;21.66;73.04;92382.69;5038828;28;20252;-69
2022/08/15 08:32:04;;;;;;;22.65;20.17;;;;;;;22.00;71.18;92363.97;5037821;28;20210;-70
2022/08/15 08:34:51;;;;;;;25.63;21.35;;;;;;;22.13;69.83;92375.22;4977655;28;20234;-69
2022/08/15 08:37:47;;;;;;;22.48;20.13;;;;;;;22.01;68.72;92370.81;5033908;28;20664;-70
2022/08/15 08:43:14;;;;;;;21.55;19.35;;;;;;;22.14;69.39;92368.75;5039565;28;20192;-70
2022/08/15 08:45:52;;;;;;;21.42;19.20;;;;;;;22.53;67.57;92369.41;5037929;28;20228;-70
2022/08/15 08:48:27;;;;;;;25.08;21.33;;;;;;;22.30;68.79;92388.03;5037498;28;20206;-69
2022/08/15 08:51:07;;;;;;;24.25;21.73;;;;;;;22.61;67.72;92376.38;5040792;28;20211;-70
2022/08/15 08:53:36;;;;;;;22.80;20.38;;;;;;;22.52;66.21;92379.31;5035700;28;20247;-70
2022/08/15 08:56:31;;;;;;;22.40;20.10;;;;;;;22.58;67.96;92366.44;5039438;28;20198;-71
2022/08/15 08:59:16;;;;;;;22.95;20.55;;;;;;;22.77;66.67;92375.09;5038365;28;20245;-69
2022/08/15 09:01:42;;;;;;;24.70;20.90;;;;;;;22.54;67.62;92360.31;5037487;28;20219;-68
2022/08/15 09:04:19;;;;;;;21.20;19.08;;;;;;;22.57;68.06;92370.25;5039516;28;20236;-68
2022/08/15 09:06:48;;;;;;;25.55;21.23;;;;;;;22.56;68.49;92364.13;5039958;28;20285;-70
2022/08/15 09:09:34;;;;;;;23.42;20.95;;;;;;;22.33;68.24;92363.38;5037957;28;20225;-70
2022/08/15 09:14:57;;;;;;;22.25;19.95;;;;;;;22.41;66.53;92354.38;5037280;28;20249;-69
2022/08/15 09:17:26;;;;;;;22.27;19.88;;;;;;;22.47;66.60;92354.84;5036224;28;20188;-71
2022/08/15 09:19:58;;;;;;;22.55;20.15;;;;;;;22.77;65.30;92353.03;5036937;28;20226;-71
2022/08/15 09:22:24;;;;;;;21.92;19.65;;;;;;;22.43;65.79;92354.78;5037821;28;20199;-70
2022/08/15 09:24:49;;;;;;;22.08;19.73;;;;;;;22.57;65.65;92349.69;5036754;28;20243;-69
2022/08/15 09:27:22;;;;;;;22.05;19.80;;;;;;;22.70;67.50;92352.94;5037139;28;20208;-70
2022/08/15 09:29:57;;;;;;;24.90;20.65;;;;;;;22.84;67.09;92364.56;5033798;28;20800;-71
2022/08/15 09:32:28;;;;;;;21.83;19.52;;;;;;;22.80;64.71;92355.72;5037124;28;20283;-72
2022/08/15 09:35:11;;;;;;;22.38;19.85;;;;;;;22.79;66.45;92358.75;5036166;28;20299;-71
2022/08/15 09:37:48;;;;;;;23.60;19.48;;;;;;;22.90;65.06;92347.13;5038635;28;20626;-71
2022/08/15 09:40:29;;;;;;;21.13;18.85;;;;;;;22.81;64.54;92357.28;5034539;28;20260;-72
2022/08/15 09:43:28;;;;;;;20.58;18.48;;;;;;;22.96;64.85;92356.34;5032623;28;20192;-72
2022/08/15 09:45:59;;;;;;;20.52;18.13;;;;;;;23.03;63.83;92351.13;5010545;28;20218;-71
2022/08/15 09:48:53;;;;;;;21.00;18.83;;;;;;;23.24;64.61;92359.38;5035716;28;20198;-70
2022/08/15 09:51:40;;;;;;;20.98;18.77;;;;;;;23.02;65.00;92354.91;5036517;28;20192;-71
2022/08/15 09:54:22;;;;;;;20.25;18.25;;;;;;;23.15;63.69;92337.56;5033927;28;20256;-71
2022/08/15 09:56:48;;;;;;;19.83;17.83;;;;;;;23.23;63.18;92346.41;5035264;28;20177;-70
2022/08/15 09:59:22;;;;;;;20.10;18.00;;;;;;;23.32;61.83;92346.94;5037785;28;20240;-70
2022/08/15 10:01:58;;;;;;;20.10;17.95;;;;;;;23.29;61.56;92345.00;5034675;28;20194;-71
2022/08/15 10:05:02;;;;;;;21.08;18.92;;;;;;;23.47;62.57;92343.31;5035541;28;20232;-72
2022/08/15 10:07:38;;;;;;;19.25;17.33;;;;;;;23.58;60.06;92349.53;5037038;28;20254;-72
2022/08/15 10:10:13;;;;;;;18.42;16.33;;;;;;;23.53;59.82;92350.59;5040013;28;20280;-71
2022/08/15 10:12:38;;;;;;;19.52;17.55;;;;;;;23.55;60.38;92353.69;5039599;28;20216;-71
2022/08/15 10:15:31;;;;;;;20.08;17.98;;;;;;;23.52;61.45;92354.41;5036339;28;20223;-71
2022/08/15 10:17:58;;;;;;;19.70;17.92;;;;;;;23.49;63.30;92343.69;5035577;28;20193;-69
2022/08/15 10:20:26;;;;;;;21.13;19.02;;;;;;;23.87;63.52;92351.34;5036921;28;20220;-70
2022/08/15 10:22:59;;;;;;;20.30;18.17;;;;;;;23.99;61.47;92347.66;5034740;28;20204;-70
2022/08/15 10:25:35;;;;;;;20.98;18.73;;;;;;;23.80;62.68;92345.19;5037510;28;20252;-71
2022/08/15 10:28:01;;;;;;;21.25;19.13;;;;;;;23.64;63.30;92348.81;5038369;28;20260;-71
2022/08/15 10:30:32;;;;;;;21.38;19.17;;;;;;;23.69;63.96;92342.38;5035222;28;20222;-70
2022/08/15 10:33:00;;;;;;;21.02;18.83;;;;;;;23.76;63.51;92334.47;5034811;28;20213;-70
2022/08/15 10:35:35;;;;;;;20.40;18.38;;;;;;;23.99;63.00;92343.13;5033705;28;20231;-70
2022/08/15 10:38:02;;;;;;;20.33;18.25;;;;;;;23.92;61.64;92344.91;5035317;28;20187;-70
2022/08/15 10:41:09;;;;;;;21.48;17.67;;;;;;;23.76;61.30;92347.81;5032622;28;20300;-71
2022/08/15 10:43:52;;;;;;;18.40;16.70;;;;;;;23.75;60.09;92355.03;5021637;28;20198;-69
2022/08/15 10:46:35;;;;;;;19.30;17.35;;;;;;;23.90;60.82;92344.50;5036140;28;20196;-70
2022/08/15 10:49:27;;;;;;;20.10;18.10;;;;;;;23.94;60.30;92345.31;5034105;28;20259;-71
2022/08/15 10:52:18;;;;;;;19.27;16.02;;;;;;;23.99;60.39;92347.66;5037779;28;21024;-71
2022/08/15 10:55:02;;;;;;;18.33;16.52;;;;;;;24.11;61.33;92345.50;5035084;28;20263;-71
2022/08/15 10:57:38;;;;;;;17.73;16.02;;;;;;;24.15;59.74;92324.19;5035799;28;20182;-70
2022/08/15 11:00:06;;;;;;;17.67;16.08;;;;;;;24.44;59.95;92347.28;5036700;28;20259;-70
2022/08/15 11:02:55;;;;;;;18.27;16.50;;;;;;;24.69;59.72;92340.25;5035970;28;20194;-71
2022/08/15 11:05:24;;;;;;;18.20;16.30;;;;;;;24.76;59.88;92338.41;5035869;28;20218;-72
2022/08/15 11:07:52;;;;;;;18.20;16.50;;;;;;;24.88;60.15;92340.00;5034162;28;20237;-72
2022/08/15 11:10:21;;;;;;;18.73;16.92;;;;;;;24.74;59.20;92345.25;5041014;28;20226;-72
2022/08/15 11:12:54;;;;;;;17.95;16.42;;;;;;;24.57;57.38;92344.00;5039320;28;20272;-73
2022/08/15 11:15:31;;;;;;;16.45;15.05;;;;;;;24.66;56.53;92333.78;5039477;28;20240;-72
2022/08/15 11:18:04;;;;;;;17.05;15.45;;;;;;;24.80;57.63;92346.44;5039209;28;20232;-73
2022/08/15 11:21:02;;;;;;;17.50;15.98;;;;;;;24.65;57.33;92355.47;5040168;28;20234;-72
2022/08/15 11:23:31;;;;;;;17.25;15.65;;;;;;;24.72;57.90;92336.84;5039883;28;20205;-72
2022/08/15 11:25:57;;;;;;;17.17;15.55;;;;;;;24.72;59.12;92334.19;5041350;28;20905;-73
2022/08/15 11:28:28;;;;;;;17.63;15.95;;;;;;;24.64;57.53;92327.25;5036971;28;20274;-73
2022/08/15 11:31:04;;;;;;;16.35;14.75;;;;;;;25.12;56.76;92339.41;5038393;28;20193;-74
2022/08/15 11:33:41;;;;;;;17.17;15.68;;;;;;;25.09;57.13;92337.47;5037222;28;21044;-73
2022/08/15 11:36:20;;;;;;;16.38;14.77;;;;;;;25.07;56.91;92334.41;5041315;28;20201;-74
2022/08/15 11:38:58;;;;;;;16.30;14.70;;;;;;;25.01;55.76;92325.22;5039895;28;20321;-73
2022/08/15 11:41:29;;;;;;;16.65;15.13;;;;;;;25.08;56.91;92327.91;5039929;28;20186;-73
2022/08/15 11:43:59;;;;;;;17.35;15.73;;;;;;;25.13;55.95;92332.91;5037457;28;20229;-74
2022/08/15 11:46:27;;;;;;;14.68;13.48;;;;;;;25.11;55.47;92324.47;5038400;28;20202;-73
2022/08/15 11:49:06;;;;;;;16.85;15.35;;;;;;;24.98;56.65;92331.31;5036654;28;20308;-73
2022/08/15 11:51:42;;;;;;;16.63;15.23;;;;;;;24.90;54.84;92327.06;5037032;28;20193;-73